Time;durP1;ratioP1;P1;durP2;ratioP2;P2;SDS_P1;SDS_P2;PMS_P1;PMS_P2;Temp;Humidity;BMP_temperature;BMP_pressure;BME280_temperature;BME280_humidity;BME280_pressure;Samples;Min_cycle;Max_cycle;Signal;HPM_P1;HPM_P2
2022/05/12 00:00:22;;;;;;;20.00;7.03;;;13.80;82.30;;;;;;5026220;28;20108;-91
2022/05/12 00:02:48;;;;;;;18.00;6.65;;;13.90;82.20;;;;;;5054452;28;20041;-88
2022/05/12 00:05:14;;;;;;;18.58;6.97;;;13.80;82.20;;;;;;5014206;28;20029;-86
2022/05/12 00:07:41;;;;;;;18.02;6.55;;;13.80;82.10;;;;;;5036565;28;20059;-85
2022/05/12 00:10:08;;;;;;;19.40;7.45;;;13.80;82.10;;;;;;5044994;28;20469;-85
2022/05/12 00:12:34;;;;;;;22.88;7.20;;;13.80;82.10;;;;;;5034498;28;20033;-84
2022/05/12 00:15:04;;;;;;;19.02;8.13;;;13.80;82.00;;;;;;5032441;28;20035;-84
2022/05/12 00:17:32;;;;;;;19.42;9.77;;;13.80;82.00;;;;;;5024518;28;20044;-84
2022/05/12 00:19:57;;;;;;;22.27;13.52;;;13.90;81.70;;;;;;5023439;28;20385;-86
2022/05/12 00:22:24;;;;;;;26.90;15.85;;;13.80;81.40;;;;;;5021230;28;20088;-85
2022/05/12 00:24:51;;;;;;;25.30;17.45;;;13.80;81.50;;;;;;5024491;28;20046;-84
2022/05/12 00:27:16;;;;;;;29.58;16.30;;;13.80;81.30;;;;;;5040115;28;20037;-85
2022/05/12 00:29:42;;;;;;;24.25;13.90;;;13.80;81.40;;;;;;5042065;28;20539;-84
2022/05/12 00:32:09;;;;;;;21.10;11.27;;;13.80;81.30;;;;;;5023810;28;20049;-84
2022/05/12 00:34:35;;;;;;;21.30;10.48;;;13.70;81.40;;;;;;5029571;28;20033;-85
2022/05/12 00:37:00;;;;;;;18.95;8.57;;;13.70;81.20;;;;;;5026139;28;20038;-86
2022/05/12 00:39:26;;;;;;;18.92;8.95;;;13.60;81.30;;;;;;5021007;28;20059;-84
2022/05/12 00:41:52;;;;;;;21.42;9.68;;;13.60;81.40;;;;;;5036779;28;20029;-84
2022/05/12 00:44:18;;;;;;;20.58;8.55;;;13.50;81.60;;;;;;5023877;28;20494;-84
2022/05/12 00:46:49;;;;;;;19.75;8.07;;;13.50;81.70;;;;;;5032457;28;20381;-87
2022/05/12 00:49:18;;;;;;;19.63;8.57;;;13.50;81.70;;;;;;5023613;28;20036;-86
2022/05/12 00:51:49;;;;;;;18.15;8.50;;;13.50;81.70;;;;;;5016673;28;20123;-88
2022/05/12 00:54:23;;;;;;;20.83;8.63;;;13.40;81.70;;;;;;5006352;28;20029;-85
2022/05/12 00:56:49;;;;;;;;;;;13.30;82.00;;;;;;5030854;28;20045;-86
2022/05/12 00:59:22;;;;;;;20.38;8.48;;;13.40;82.00;;;;;;5042850;28;20295;-89
2022/05/12 01:01:49;;;;;;;18.65;8.60;;;13.30;82.10;;;;;;5034992;28;20046;-85
2022/05/12 01:04:17;;;;;;;21.58;8.85;;;13.30;82.00;;;;;;5024760;28;20064;-85
2022/05/12 01:06:42;;;;;;;21.10;8.48;;;13.30;82.20;;;;;;5029738;28;20447;-85
2022/05/12 01:09:08;;;;;;;19.13;8.75;;;13.40;81.90;;;;;;5031713;28;20042;-86
2022/05/12 01:11:35;;;;;;;18.08;8.43;;;13.30;81.70;;;;;;5039711;28;20032;-85
2022/05/12 01:14:04;;;;;;;17.88;7.95;;;13.40;81.70;;;;;;5019049;28;20075;-85
2022/05/12 01:16:39;;;;;;;19.48;8.45;;;13.40;81.60;;;;;;5027478;28;20095;-84
2022/05/12 01:19:07;;;;;;;19.77;8.85;;;13.30;81.60;;;;;;5022907;28;20117;-85
2022/05/12 01:21:33;;;;;;;20.33;8.88;;;13.30;81.80;;;;;;5037929;28;20045;-87
2022/05/12 01:24:00;;;;;;;22.70;7.35;;;13.20;81.60;;;;;;5046177;28;20037;-92
2022/05/12 01:26:27;;;;;;;19.35;8.75;;;13.20;81.70;;;;;;5025980;28;20086;-86
2022/05/12 01:28:53;;;;;;;22.73;8.35;;;13.30;81.40;;;;;;5023919;28;20060;-85
2022/05/12 01:31:20;;;;;;;18.27;8.68;;;13.20;81.40;;;;;;5041901;28;20358;-88
2022/05/12 01:33:46;;;;;;;17.08;7.53;;;13.20;81.40;;;;;;5019722;28;20053;-86
2022/05/12 01:36:12;;;;;;;22.50;8.95;;;13.10;81.50;;;;;;5032279;28;20034;-87
2022/05/12 01:38:38;;;;;;;19.80;8.30;;;13.10;81.60;;;;;;5047448;28;20565;-86
2022/05/12 01:41:03;;;;;;;23.63;8.65;;;13.10;81.80;;;;;;5030515;28;20065;-90
2022/05/12 01:43:29;;;;;;;20.20;7.78;;;13.10;81.70;;;;;;5034393;28;20033;-85
2022/05/12 01:45:58;;;;;;;18.77;8.25;;;13.10;81.80;;;;;;5024460;28;20571;-86
2022/05/12 01:48:23;;;;;;;20.85;8.75;;;13.10;82.00;;;;;;5028471;28;20044;-86
2022/05/12 01:50:49;;;;;;;20.00;8.43;;;13.10;81.80;;;;;;5002127;28;20041;-84
2022/05/12 01:53:16;;;;;;;24.27;8.30;;;13.00;81.90;;;;;;5014063;28;20041;-86
2022/05/12 01:55:43;;;;;;;17.45;7.80;;;13.00;82.20;;;;;;5028242;28;20082;-87
2022/05/12 01:58:08;;;;;;;20.10;8.23;;;13.00;82.30;;;;;;5029209;28;20126;-86
2022/05/12 02:00:35;;;;;;;19.02;8.75;;;12.90;82.00;;;;;;5030862;28;20465;-87
2022/05/12 02:03:01;;;;;;;17.48;8.20;;;12.90;82.30;;;;;;5027325;28;20445;-86
2022/05/12 02:05:31;;;;;;;19.13;8.23;;;12.90;82.20;;;;;;5038522;28;20041;-87
2022/05/12 02:07:57;;;;;;;17.90;8.93;;;12.80;82.40;;;;;;5036633;28;20037;-85
2022/05/12 02:10:27;;;;;;;17.70;8.43;;;12.80;82.30;;;;;;5032397;28;20144;-87
2022/05/12 02:12:54;;;;;;;18.38;8.30;;;12.70;82.60;;;;;;5018504;28;20030;-86
2022/05/12 02:15:20;;;;;;;17.90;8.98;;;12.70;82.90;;;;;;5023600;28;20041;-87
2022/05/12 02:17:46;;;;;;;21.55;8.90;;;12.70;82.90;;;;;;5023817;28;20086;-88
2022/05/12 02:20:13;;;;;;;22.08;8.75;;;12.70;83.00;;;;;;5023520;28;20125;-87
2022/05/12 02:22:41;;;;;;;21.33;8.82;;;12.70;83.00;;;;;;5022766;28;20172;-87
2022/05/12 02:25:08;;;;;;;20.95;8.68;;;12.70;82.80;;;;;;5020425;28;20046;-87
2022/05/12 02:27:33;;;;;;;22.77;10.40;;;12.60;83.00;;;;;;5029449;28;20034;-86
2022/05/12 02:29:59;;;;;;;19.65;9.52;;;12.70;83.00;;;;;;5038620;28;21165;-87
2022/05/12 02:32:29;;;;;;;18.88;9.02;;;12.60;83.00;;;;;;5032707;28;20499;-87
2022/05/12 02:34:56;;;;;;;21.13;11.82;;;12.60;82.90;;;;;;5035698;28;20045;-87
2022/05/12 02:37:22;;;;;;;22.50;12.20;;;12.60;83.10;;;;;;5030843;28;20037;-91
2022/05/12 02:39:47;;;;;;;24.70;13.77;;;12.60;83.10;;;;;;5043339;28;20045;-90
2022/05/12 02:42:13;;;;;;;27.60;16.02;;;12.50;83.20;;;;;;5044500;28;20039;-86
2022/05/12 02:44:39;;;;;;;22.83;15.88;;;12.50;83.20;;;;;;5020540;28;20092;-87
2022/05/12 02:47:07;;;;;;;22.95;15.30;;;12.50;83.40;;;;;;5009236;28;20038;-87
2022/05/12 02:49:33;;;;;;;24.75;15.93;;;12.40;83.50;;;;;;5021027;28;20030;-86
2022/05/12 02:51:59;;;;;;;24.70;14.02;;;12.40;83.60;;;;;;5035567;28;20033;-87
2022/05/12 02:54:25;;;;;;;23.58;12.55;;;12.40;83.80;;;;;;5025777;28;20105;-89
2022/05/12 02:56:52;;;;;;;24.02;11.60;;;12.40;83.70;;;;;;5033039;28;20033;-87
2022/05/12 02:59:18;;;;;;;19.55;11.05;;;12.30;83.60;;;;;;5046685;28;20026;-91
2022/05/12 03:01:45;;;;;;;20.45;10.73;;;12.30;83.70;;;;;;5061169;28;20037;-89
2022/05/12 03:04:10;;;;;;;21.45;10.75;;;12.30;83.80;;;;;;5041856;28;20136;-89
2022/05/12 03:06:37;;;;;;;21.77;11.18;;;12.20;84.00;;;;;;5042098;28;20069;-86
2022/05/12 03:09:04;;;;;;;20.83;10.73;;;12.20;84.10;;;;;;5032522;28;20073;-87
2022/05/12 03:11:30;;;;;;;22.40;10.57;;;12.20;83.90;;;;;;5027734;28;20338;-87
2022/05/12 03:13:55;;;;;;;19.83;10.20;;;12.20;83.90;;;;;;5012159;28;20102;-85
2022/05/12 03:16:22;;;;;;;21.60;11.07;;;12.20;83.90;;;;;;5002038;28;20642;-86
2022/05/12 03:18:51;;;;;;;27.75;11.57;;;12.10;84.00;;;;;;5023219;28;20108;-85
2022/05/12 03:21:19;;;;;;;20.67;11.60;;;12.10;84.30;;;;;;5025211;28;20045;-87
2022/05/12 03:23:44;;;;;;;21.88;10.98;;;12.10;84.20;;;;;;5008270;28;20080;-85
2022/05/12 03:26:11;;;;;;;26.42;12.38;;;12.10;84.30;;;;;;5028902;28;20034;-87
2022/05/12 03:28:38;;;;;;;27.23;12.50;;;12.10;84.30;;;;;;5023624;28;20038;-86
2022/05/12 03:31:04;;;;;;;23.58;11.10;;;12.10;84.40;;;;;;5029194;28;20038;-85
2022/05/12 03:33:29;;;;;;;27.23;12.52;;;12.10;84.40;;;;;;5032158;28;20068;-85
2022/05/12 03:35:58;;;;;;;24.88;11.95;;;12.10;84.60;;;;;;5036671;28;20037;-87
2022/05/12 03:38:24;;;;;;;19.27;11.30;;;12.10;84.50;;;;;;5024318;28;20433;-86
2022/05/12 03:40:50;;;;;;;25.77;12.05;;;12.10;84.50;;;;;;5029537;28;20183;-85
2022/05/12 03:44:46;;;;;;;21.85;12.18;;;12.10;84.40;;;;;;5018346;28;20396;-86
2022/05/12 03:46:02;;;;;;;26.70;13.25;;;12.00;84.50;;;;;;5027459;28;21421;-85
2022/05/12 03:48:28;;;;;;;29.95;12.75;;;12.00;84.60;;;;;;5025050;28;20116;-86
2022/05/12 03:50:54;;;;;;;22.58;11.82;;;12.00;84.50;;;;;;5023452;28;20124;-86
2022/05/12 03:53:20;;;;;;;20.88;12.98;;;12.00;84.60;;;;;;5044882;28;20082;-86
2022/05/12 03:55:45;;;;;;;21.35;12.60;;;12.00;84.60;;;;;;5030413;28;20033;-86
2022/05/12 03:58:12;;;;;;;23.40;12.32;;;11.90;84.50;;;;;;5030016;28;20040;-86
2022/05/12 04:00:38;;;;;;;24.85;12.82;;;12.00;84.50;;;;;;5006536;28;20067;-85
2022/05/12 04:03:07;;;;;;;31.65;11.77;;;11.90;84.60;;;;;;4999672;28;20134;-87
2022/05/12 04:05:33;;;;;;;21.52;11.98;;;11.90;84.60;;;;;;5028618;28;20037;-87
2022/05/12 04:07:59;;;;;;;22.52;11.35;;;12.00;84.50;;;;;;5016681;28;20049;-88
2022/05/12 04:10:25;;;;;;;24.10;9.80;;;11.90;84.30;;;;;;5019675;28;20045;-86
2022/05/12 04:12:52;;;;;;;19.80;10.65;;;11.90;84.30;;;;;;5033390;28;20144;-88
2022/05/12 04:15:19;;;;;;;16.25;9.77;;;11.90;84.20;;;;;;5017699;28;20029;-90
2022/05/12 04:17:53;;;;;;;19.63;9.52;;;12.10;84.20;;;;;;5022964;28;20042;-88
2022/05/12 04:20:19;;;;;;;20.33;9.93;;;12.00;84.00;;;;;;5003218;28;20052;-87
2022/05/12 04:22:45;;;;;;;18.67;9.90;;;12.00;83.90;;;;;;5022882;28;20050;-89
2022/05/12 04:25:11;;;;;;;25.30;10.90;;;12.10;83.50;;;;;;5025781;28;20026;-86
2022/05/12 04:27:39;;;;;;;22.73;11.60;;;12.10;83.40;;;;;;5020551;28;20377;-91
2022/05/12 04:30:07;;;;;;;23.83;15.25;;;12.10;83.20;;;;;;5063218;28;20036;-87
2022/05/12 04:32:33;;;;;;;32.40;22.88;;;12.10;83.10;;;;;;5024848;28;20425;-86
2022/05/12 04:35:14;;;;;;;31.98;26.02;;;12.20;83.00;;;;;;5019718;28;20052;-89
2022/05/12 04:37:41;;;;;;;33.17;25.90;;;12.20;82.80;;;;;;5033482;28;20064;-86
2022/05/12 04:40:09;;;;;;;45.65;36.28;;;12.30;82.70;;;;;;5023847;28;20383;-88
2022/05/12 04:42:35;;;;;;;41.80;33.38;;;12.30;82.50;;;;;;5035106;28;20041;-90
2022/05/12 04:45:02;;;;;;;42.97;32.08;;;12.40;82.60;;;;;;5043532;28;20052;-90
2022/05/12 04:47:27;;;;;;;39.47;31.67;;;12.40;82.60;;;;;;5046523;28;20056;-88
2022/05/12 04:49:55;;;;;;;34.45;27.58;;;12.40;82.20;;;;;;5026592;28;20060;-85
2022/05/12 04:52:21;;;;;;;31.52;24.58;;;12.50;82.30;;;;;;5027767;28;20045;-85
2022/05/12 04:54:47;;;;;;;31.92;24.20;;;12.50;82.10;;;;;;5020689;28;20095;-87
2022/05/12 04:57:12;;;;;;;30.73;21.98;;;12.60;81.80;;;;;;5026289;28;20037;-85
2022/05/12 04:59:38;;;;;;;26.58;19.65;;;12.60;81.70;;;;;;5038223;28;20116;-86
2022/05/12 05:02:04;;;;;;;27.95;17.90;;;12.60;81.60;;;;;;5020633;28;20045;-86
2022/05/12 05:04:29;;;;;;;28.67;14.73;;;12.60;81.30;;;;;;5025171;28;20042;-85
2022/05/12 05:06:55;;;;;;;27.85;13.13;;;12.70;81.50;;;;;;5031403;28;20029;-87
2022/05/12 05:09:20;;;;;;;22.52;11.52;;;12.60;81.40;;;;;;5014464;28;23035;-85
2022/05/12 05:11:46;;;;;;;22.00;11.13;;;12.70;81.30;;;;;;5038509;28;20046;-87
2022/05/12 05:14:12;;;;;;;26.35;11.30;;;12.90;81.20;;;;;;5026374;28;20038;-86
2022/05/12 05:16:38;;;;;;;21.38;9.48;;;13.00;80.90;;;;;;5021662;28;20029;-85
2022/05/12 05:19:03;;;;;;;21.13;9.80;;;13.90;79.60;;;;;;5016628;28;20458;-88
2022/05/12 05:21:29;;;;;;;20.73;8.80;;;15.10;75.70;;;;;;5026444;28;20037;-86
2022/05/12 05:23:55;;;;;;;18.08;7.82;;;16.30;71.00;;;;;;5016930;28;20042;-86
2022/05/12 05:26:22;;;;;;;21.42;8.35;;;17.30;66.90;;;;;;5004935;28;20050;-88
2022/05/12 05:28:48;;;;;;;14.07;6.82;;;17.80;64.10;;;;;;5018484;28;20037;-85
2022/05/12 05:31:14;;;;;;;18.10;7.20;;;18.20;63.00;;;;;;5011748;28;20432;-86
2022/05/12 05:33:40;;;;;;;19.45;8.05;;;18.20;61.70;;;;;;5030037;28;20045;-89
2022/05/12 05:36:06;;;;;;;21.00;8.00;;;17.50;63.10;;;;;;5022038;28;20738;-86
2022/05/12 05:38:31;;;;;;;16.42;7.35;;;16.90;65.30;;;;;;5017629;28;20058;-90
2022/05/12 05:40:57;;;;;;;16.25;8.00;;;16.10;67.70;;;;;;5012219;28;20073;-85
2022/05/12 05:43:23;;;;;;;16.60;7.65;;;16.30;68.80;;;;;;5013392;28;20405;-86
2022/05/12 05:45:50;;;;;;;18.15;8.20;;;17.20;65.80;;;;;;5014273;28;20045;-89
2022/05/12 05:48:16;;;;;;;21.55;8.15;;;17.70;64.20;;;;;;5017903;28;20033;-86
2022/05/12 05:53:31;;;;;;;21.58;9.10;;;18.40;61.90;;;;;;5021359;28;20057;-86
2022/05/12 05:56:00;;;;;;;19.52;8.10;;;18.10;61.40;;;;;;5016065;28;20069;-86
2022/05/12 05:58:27;;;;;;;21.80;8.93;;;17.40;64.50;;;;;;5017090;28;20038;-91
2022/05/12 06:00:54;;;;;;;18.35;8.48;;;16.90;66.20;;;;;;5016871;28;20772;-85
2022/05/12 06:03:20;;;;;;;18.23;8.73;;;16.40;67.90;;;;;;5015429;28;20054;-87
2022/05/12 06:05:46;;;;;;;20.40;8.45;;;16.00;69.90;;;;;;5012083;28;20760;-90
2022/05/12 06:08:14;;;;;;;19.48;8.75;;;15.80;70.70;;;;;;5010388;28;20030;-87
2022/05/12 06:10:40;;;;;;;20.55;9.23;;;15.50;71.80;;;;;;5009438;28;20081;-86
2022/05/12 06:13:08;;;;;;;22.50;10.57;;;15.40;72.90;;;;;;5013291;28;20061;-81
2022/05/12 06:15:34;;;;;;;18.63;9.82;;;15.30;73.00;;;;;;5023185;28;20048;-83
2022/05/12 06:17:59;;;;;;;22.33;9.80;;;15.40;73.20;;;;;;5015906;28;20045;-80
2022/05/12 06:20:25;;;;;;;20.85;10.23;;;15.40;73.40;;;;;;5003527;28;20037;-79
2022/05/12 06:22:52;;;;;;;22.30;9.45;;;15.50;73.30;;;;;;5000827;28;20052;-83
2022/05/12 06:25:18;;;;;;;22.90;10.18;;;15.60;72.90;;;;;;5008087;28;20051;-79
2022/05/12 06:27:45;;;;;;;19.55;10.25;;;15.60;72.80;;;;;;5013339;28;20438;-79
2022/05/12 06:30:13;;;;;;;24.08;9.05;;;15.60;72.60;;;;;;5003062;28;20832;-79
2022/05/12 06:32:43;;;;;;;22.73;10.38;;;15.80;73.10;;;;;;4999621;28;20038;-82
2022/05/12 06:35:10;;;;;;;17.10;9.20;;;16.00;72.50;;;;;;5010470;28;20140;-82
2022/05/12 06:37:36;;;;;;;17.33;8.95;;;16.10;71.80;;;;;;5017551;28;20528;-80
2022/05/12 06:40:03;;;;;;;17.13;9.60;;;16.10;71.30;;;;;;5005486;28;20044;-79
2022/05/12 06:42:28;;;;;;;16.35;8.77;;;16.20;71.10;;;;;;5002888;28;20049;-79
2022/05/12 06:44:54;;;;;;;18.35;8.00;;;16.40;70.80;;;;;;5000410;28;20041;-82
2022/05/12 06:47:20;;;;;;;16.05;7.65;;;16.40;70.40;;;;;;5005236;28;20428;-80
2022/05/12 06:49:50;;;;;;;22.80;9.95;;;16.50;69.30;;;;;;5006822;28;20017;-79
2022/05/12 06:52:16;;;;;;;19.83;9.77;;;16.50;69.40;;;;;;5021992;28;20487;-80
2022/05/12 06:54:42;;;;;;;15.77;8.25;;;16.60;69.70;;;;;;5022443;28;20052;-80
2022/05/12 06:57:09;;;;;;;18.08;9.38;;;16.70;69.40;;;;;;5004068;28;20045;-81
2022/05/12 06:59:39;;;;;;;15.43;8.02;;;16.50;69.10;;;;;;5029813;28;20053;-82
2022/05/12 07:02:06;;;;;;;14.93;8.55;;;16.50;69.40;;;;;;5023772;28;20033;-85
2022/05/12 07:04:32;;;;;;;18.73;8.48;;;16.80;68.90;;;;;;5010562;28;20144;-83
2022/05/12 07:06:58;;;;;;;20.75;8.20;;;16.70;68.40;;;;;;5002638;28;20040;-82
2022/05/12 07:09:24;;;;;;;17.67;7.80;;;16.80;68.10;;;;;;5003129;28;20037;-85
2022/05/12 07:11:50;;;;;;;14.02;7.35;;;17.10;66.50;;;;;;5016709;28;20379;-81
2022/05/12 07:14:17;;;;;;;15.35;6.53;;;17.20;65.80;;;;;;5007308;28;20279;-80
2022/05/12 07:16:44;;;;;;;16.75;7.13;;;17.30;63.50;;;;;;5008243;28;20072;-82
2022/05/12 07:19:14;;;;;;;21.13;8.50;;;17.60;64.00;;;;;;5009807;28;20079;-83
2022/05/12 07:27:26;;;;;;;15.50;6.45;;;17.80;62.30;;;;;;4967607;28;20045;-81
2022/05/12 07:29:52;;;;;;;14.40;6.72;;;18.00;62.50;;;;;;5002722;28;20036;-83
2022/05/12 07:32:18;;;;;;;15.82;7.10;;;17.90;61.80;;;;;;5011430;28;20060;-82
2022/05/12 07:34:44;;;;;;;9.65;3.90;;;18.10;62.30;;;;;;5009612;28;20482;-80
2022/05/12 07:37:09;;;;;;;12.93;4.45;;;18.10;59.00;;;;;;5011665;28;20034;-82
2022/05/12 07:39:36;;;;;;;15.73;6.40;;;18.20;58.00;;;;;;5008577;28;20125;-84
2022/05/12 07:42:04;;;;;;;11.23;4.13;;;18.20;59.50;;;;;;5007772;28;20030;-81
2022/05/12 07:44:34;;;;;;;16.33;5.20;;;18.40;58.20;;;;;;5015853;28;20029;-81
2022/05/12 07:47:10;;;;;;;13.02;5.28;;;18.40;56.90;;;;;;5010326;28;20073;-82
2022/05/12 07:49:37;;;;;;;12.75;6.03;;;18.10;57.40;;;;;;5022680;28;20476;-83
2022/05/12 07:52:06;;;;;;;13.40;6.22;;;18.50;57.70;;;;;;5020545;28;20183;-85
2022/05/12 07:54:32;;;;;;;13.70;5.40;;;18.80;58.20;;;;;;5019845;28;20704;-83
2022/05/12 07:56:57;;;;;;;12.77;5.60;;;19.00;55.10;;;;;;5015496;28;20579;-82
2022/05/12 07:59:24;;;;;;;13.80;5.43;;;19.00;54.90;;;;;;5020391;28;20037;-81
2022/05/12 08:01:49;;;;;;;14.05;5.22;;;19.00;53.80;;;;;;5011950;28;20029;-81
2022/05/12 08:04:15;;;;;;;13.98;5.20;;;19.20;53.60;;;;;;5017998;28;20044;-84
2022/05/12 08:06:43;;;;;;;11.25;3.13;;;19.30;54.80;;;;;;5024109;28;20048;-81
2022/05/12 08:09:09;;;;;;;11.23;3.83;;;19.60;50.60;;;;;;5012683;28;20108;-83
2022/05/12 08:11:35;;;;;;;13.60;4.25;;;19.60;49.10;;;;;;5006719;28;20425;-88
2022/05/12 08:14:01;;;;;;;16.05;5.10;;;19.90;51.10;;;;;;5007401;28;20049;-82
2022/05/12 08:16:27;;;;;;;13.40;4.57;;;20.20;50.30;;;;;;5018591;28;20030;-82
2022/05/12 08:18:53;;;;;;;10.93;3.80;;;20.30;48.50;;;;;;5011381;28;20033;-83
2022/05/12 08:21:23;;;;;;;11.15;4.45;;;20.40;49.90;;;;;;5006759;28;20301;-84
2022/05/12 08:23:50;;;;;;;10.40;3.95;;;20.50;49.90;;;;;;5032237;28;20447;-81
2022/05/12 08:26:17;;;;;;;10.95;3.78;;;20.60;47.80;;;;;;5011702;28;20046;-83
2022/05/12 08:28:44;;;;;;;10.13;4.25;;;20.60;48.20;;;;;;5012580;28;20042;-82
2022/05/12 08:31:10;;;;;;;10.55;2.95;;;20.60;46.40;;;;;;5019452;28;20118;-83
2022/05/12 08:33:37;;;;;;;8.95;3.40;;;20.70;46.10;;;;;;5015094;28;20045;-80
2022/05/12 08:36:03;;;;;;;11.93;3.92;;;21.00;45.10;;;;;;5020633;28;20441;-80
2022/05/12 08:38:29;;;;;;;10.48;3.88;;;20.70;46.30;;;;;;5008320;28;20030;-81
2022/05/12 08:41:41;;;;;;;12.32;3.35;;;20.90;46.90;;;;;;5012725;28;20047;-83
2022/05/12 08:44:13;;;;;;;12.45;4.35;;;21.00;46.50;;;;;;4967363;28;20091;-81
2022/05/12 08:46:53;;;;;;;11.68;4.78;;;21.00;46.10;;;;;;5012437;28;20326;-82
2022/05/12 08:49:45;;;;;;;12.68;4.53;;;20.60;47.40;;;;;;5016152;28;20080;-82
2022/05/12 08:52:15;;;;;;;9.68;3.95;;;20.80;47.20;;;;;;5017619;28;20037;-82
2022/05/12 08:54:55;;;;;;;8.40;3.15;;;20.90;47.40;;;;;;5013482;28;20033;-81
2022/05/12 08:57:31;;;;;;;9.52;3.03;;;20.70;46.00;;;;;;5008544;28;20315;-81
2022/05/12 08:59:58;;;;;;;9.82;3.85;;;20.80;45.70;;;;;;5023004;28;20502;-82
2022/05/12 09:02:38;;;;;;;9.52;3.28;;;20.70;47.00;;;;;;5014882;28;20061;-80
2022/05/12 09:05:05;;;;;;;13.05;3.78;;;20.90;45.80;;;;;;5016912;28;20036;-82
2022/05/12 09:07:51;;;;;;;9.35;3.80;;;21.20;45.30;;;;;;5015961;28;20033;-83
2022/05/12 09:10:50;;;;;;;12.02;2.65;;;21.60;44.50;;;;;;5011958;28;20029;-80
2022/05/12 09:13:22;;;;;;;12.75;3.40;;;21.80;43.20;;;;;;5001981;28;20103;-82
2022/05/12 09:16:10;;;;;;;8.32;3.08;;;22.10;43.10;;;;;;5016615;28;20174;-80
2022/05/12 09:18:37;;;;;;;9.68;3.28;;;22.00;42.10;;;;;;5001846;28;20037;-82
2022/05/12 09:21:10;;;;;;;8.60;3.15;;;22.00;42.80;;;;;;5004804;28;20532;-80
2022/05/12 09:23:36;;;;;;;7.28;3.13;;;21.80;43.00;;;;;;5012208;28;20037;-80
2022/05/12 09:26:30;;;;;;;10.90;2.78;;;21.60;43.70;;;;;;5019604;28;20376;-83
2022/05/12 09:29:09;;;;;;;6.88;2.35;;;22.00;42.70;;;;;;5021563;28;20040;-81
2022/05/12 09:31:34;;;;;;;11.13;2.55;;;21.80;42.10;;;;;;5007499;28;20432;-84
2022/05/12 09:34:35;;;;;;;10.82;2.85;;;21.80;42.00;;;;;;5009918;28;20121;-81
2022/05/12 09:37:16;;;;;;;8.35;2.97;;;21.30;43.30;;;;;;5006085;28;20042;-81
2022/05/12 09:39:42;;;;;;;8.00;2.88;;;20.60;45.40;;;;;;5005650;28;20046;-79
2022/05/12 09:42:28;;;;;;;9.00;2.13;;;20.60;46.20;;;;;;5017661;28;20044;-80
2022/05/12 09:44:58;;;;;;;10.18;3.30;;;20.40;46.00;;;;;;5004301;28;20040;-83
2022/05/12 09:47:25;;;;;;;9.93;2.50;;;20.70;45.30;;;;;;5025836;28;20037;-86
2022/05/12 09:50:16;;;;;;;5.25;2.05;;;20.80;45.80;;;;;;5016755;28;20714;-82
2022/05/12 09:52:55;;;;;;;7.35;2.10;;;20.80;43.20;;;;;;5006133;28;20564;-84
2022/05/12 09:55:39;;;;;;;7.38;2.25;;;20.80;43.30;;;;;;5003494;28;20384;-82
2022/05/12 09:58:13;;;;;;;8.73;2.50;;;21.00;43.70;;;;;;5004158;28;20470;-81
2022/05/12 10:00:43;;;;;;;7.70;1.80;;;20.80;43.40;;;;;;5003730;28;20041;-83
2022/05/12 10:09:19;;;;;;;5.35;2.10;;;20.60;44.50;;;;;;5003170;28;20095;-80
2022/05/12 10:12:07;;;;;;;10.18;2.38;;;20.90;43.10;;;;;;5013302;28;20128;-83
2022/05/12 10:14:39;;;;;;;7.40;2.00;;;21.50;42.70;;;;;;5007122;28;20113;-79
2022/05/12 10:17:33;;;;;;;9.18;2.33;;;21.50;42.00;;;;;;5010426;28;20026;-82
2022/05/12 10:20:07;;;;;;;7.40;2.00;;;21.70;41.70;;;;;;5012333;28;20079;-81
2022/05/12 10:22:43;;;;;;;7.38;2.05;;;22.00;38.80;;;;;;5016059;28;20057;-80
2022/05/12 10:25:23;;;;;;;7.03;2.35;;;22.10;38.70;;;;;;5009544;28;20034;-80
2022/05/12 10:28:18;;;;;;;7.35;1.90;;;22.30;39.70;;;;;;5009008;28;20566;-83
2022/05/12 10:30:44;;;;;;;;;;;22.40;39.70;;;;;;5002190;28;20029;-84
2022/05/12 10:33:36;;;;;;;7.28;2.00;;;22.60;39.10;;;;;;5001335;28;19913;-81
2022/05/12 10:36:09;;;;;;;6.68;1.70;;;22.70;39.40;;;;;;4996825;28;20040;-82
2022/05/12 10:39:02;;;;;;;6.95;1.92;;;23.00;37.40;;;;;;5002172;28;20083;-78
2022/05/12 10:41:33;;;;;;;8.23;1.88;;;22.80;37.60;;;;;;5012542;28;20095;-83
2022/05/12 10:44:22;;;;;;;7.95;1.80;;;22.30;39.40;;;;;;5006764;28;20090;-87
2022/05/12 10:47:01;;;;;;;8.98;2.17;;;22.00;39.60;;;;;;5011352;28;20046;-83
2022/05/12 10:50:03;;;;;;;6.88;1.98;;;21.80;39.60;;;;;;5010727;28;20072;-83
2022/05/12 10:52:58;;;;;;;5.97;2.03;;;21.60;40.80;;;;;;4986826;28;20042;-82
2022/05/12 10:55:53;;;;;;;7.45;2.00;;;22.00;40.30;;;;;;4998779;28;20112;-83
2022/05/12 10:58:31;;;;;;;8.40;2.00;;;21.60;41.50;;;;;;4997241;28;20496;-81
2022/05/12 11:00:59;;;;;;;5.88;1.95;;;22.00;40.20;;;;;;5002366;28;20049;-84
2022/05/12 11:03:32;;;;;;;6.50;1.80;;;22.30;40.10;;;;;;5003895;28;20046;-81
2022/05/12 11:06:03;;;;;;;8.00;1.85;;;22.00;39.40;;;;;;5001521;28;20517;-83
2022/05/12 11:08:38;;;;;;;7.55;2.00;;;21.60;39.90;;;;;;5003908;28;20038;-81
2022/05/12 11:11:11;;;;;;;6.53;2.13;;;21.70;40.10;;;;;;5013475;28;20500;-82
2022/05/12 11:13:43;;;;;;;7.30;2.20;;;22.20;40.00;;;;;;5017494;28;20049;-85
2022/05/12 11:16:16;;;;;;;6.45;1.70;;;22.80;38.70;;;;;;5010035;28;20037;-79
2022/05/12 11:19:14;;;;;;;8.07;2.00;;;22.70;37.50;;;;;;4998672;28;20052;-85
2022/05/12 11:22:03;;;;;;;7.30;1.90;;;22.40;38.20;;;;;;5005458;28;20030;-82
2022/05/12 11:24:43;;;;;;;8.15;2.03;;;21.90;39.50;;;;;;5010041;28;20530;-82
2022/05/12 11:27:46;;;;;;;7.90;1.65;;;21.80;40.70;;;;;;5002757;28;20128;-83
2022/05/12 11:30:33;;;;;;;10.25;2.28;;;21.90;40.20;;;;;;5000498;28;20038;-84
2022/05/12 11:33:18;;;;;;;7.13;2.40;;;21.90;40.50;;;;;;5014559;28;20206;-86
2022/05/12 11:35:48;;;;;;;7.35;2.17;;;21.80;40.90;;;;;;5016923;28;20127;-80
2022/05/12 11:38:42;;;;;;;6.47;1.83;;;22.10;40.30;;;;;;5020150;28;20632;-82
2022/05/12 11:41:35;;;;;;;8.30;2.20;;;22.30;39.80;;;;;;5007726;28;20046;-84
2022/05/12 11:44:26;;;;;;;9.25;2.08;;;22.60;39.20;;;;;;5008640;28;20053;-83
2022/05/12 11:47:08;;;;;;;10.38;2.17;;;22.30;39.10;;;;;;5006131;28;20040;-83
2022/05/12 11:49:43;;;;;;;9.25;2.28;;;22.20;40.10;;;;;;5003593;28;20064;-81
2022/05/12 11:52:24;;;;;;;5.88;1.92;;;22.70;39.40;;;;;;5002517;28;20117;-84
2022/05/12 11:54:57;;;;;;;5.97;1.50;;;23.10;39.20;;;;;;5002475;28;20586;-82
2022/05/12 11:57:50;;;;;;;6.35;1.92;;;23.30;38.50;;;;;;5008136;28;20059;-85
2022/05/12 12:00:34;;;;;;;7.18;2.25;;;22.60;38.70;;;;;;5000182;28;20026;-80
2022/05/12 12:03:21;;;;;;;5.68;2.20;;;22.00;39.50;;;;;;5001157;28;20076;-80
2022/05/12 12:05:50;;;;;;;9.60;1.98;;;21.90;39.80;;;;;;4987918;28;20037;-81
2022/05/12 12:08:40;;;;;;;8.43;2.40;;;22.20;39.50;;;;;;5000563;28;20045;-83
2022/05/12 12:11:19;;;;;;;5.63;1.90;;;23.00;38.10;;;;;;4995826;28;20446;-84
2022/05/12 12:13:47;;;;;;;5.43;1.80;;;23.30;36.70;;;;;;5000325;28;20037;-83
2022/05/12 12:16:18;;;;;;;5.78;1.60;;;23.50;35.20;;;;;;5004982;28;20034;-83
2022/05/12 12:18:49;;;;;;;6.80;1.92;;;23.90;34.80;;;;;;5022944;28;20301;-85
2022/05/12 12:21:34;;;;;;;6.88;1.60;;;24.30;34.70;;;;;;5021027;28;20057;-85
2022/05/12 12:24:20;;;;;;;8.20;2.03;;;24.50;34.00;;;;;;5021545;28;20750;-81
2022/05/12 12:26:50;;;;;;;7.53;2.15;;;23.80;35.00;;;;;;5009981;28;20034;-80
2022/05/12 12:29:21;;;;;;;7.03;1.92;;;23.80;35.80;;;;;;5008951;28;20034;-85
2022/05/12 12:31:49;;;;;;;5.00;1.73;;;23.30;36.70;;;;;;5022978;28;20125;-84
2022/05/12 12:34:41;;;;;;;5.45;1.70;;;23.10;36.30;;;;;;5023311;28;20037;-81
2022/05/12 12:37:09;;;;;;;4.43;1.70;;;23.00;35.20;;;;;;5021667;28;20109;-85
2022/05/12 12:39:37;;;;;;;6.18;1.73;;;23.20;36.10;;;;;;5019739;28;20100;-83
2022/05/12 12:42:18;;;;;;;6.35;1.40;;;23.10;35.20;;;;;;5007852;28;20038;-82
2022/05/12 12:44:49;;;;;;;5.57;1.55;;;23.60;34.50;;;;;;5008820;28;20046;-81
2022/05/12 12:48:10;;;;;;;5.32;1.40;;;23.60;33.80;;;;;;5010145;28;20123;-85
2022/05/12 12:50:51;;;;;;;5.93;1.98;;;23.40;34.00;;;;;;4984133;28;20148;-86
2022/05/12 12:53:22;;;;;;;5.55;1.75;;;23.00;34.50;;;;;;5012196;28;20034;-81
2022/05/12 12:58:45;;;;;;;5.43;1.77;;;23.20;35.50;;;;;;5009354;28;20196;-83
2022/05/12 13:01:20;;;;;;;5.75;1.77;;;23.90;34.90;;;;;;5012413;28;20627;-82
2022/05/12 13:03:54;;;;;;;5.70;1.75;;;24.00;35.00;;;;;;5017009;28;20163;-83
2022/05/12 13:06:30;;;;;;;8.20;1.75;;;24.30;34.20;;;;;;5018968;28;20357;-83
2022/05/12 13:09:02;;;;;;;7.50;1.80;;;24.30;33.50;;;;;;5015183;28;20068;-82
2022/05/12 13:11:28;;;;;;;5.05;1.60;;;23.30;34.30;;;;;;5012773;28;20137;-83
2022/05/12 13:13:56;;;;;;;4.82;1.58;;;22.50;36.30;;;;;;5017178;28;20121;-84